Ufo 3 — IUNV — position and weather

sailwx.info

Track history (hours):
 
Tides and Currents Weather Stations Pressure Air Temp Water Temp Dewpoint Dewpoint Depression Visibility Wind Speed Wind Dir Waves Ship Positions

Ufo 3

Last reported at 2017-Apr-21 15:50 UTC. Time now 2017-Apr-23 12:01 UTC.
Position N 44°05' E 009°50'.

Length 28 m.

Type: Passenger vessel. MMSI: 247031600.

Date/timePositionNaut miles runAvg speedWind from/ knotsBaromVisibWave heightAir tempDewpointWater temp
2017-Apr-21 15:50N 44°05' E 009°50'1 2.7
2017-Apr-21 15:30N 44°06' E 009°50'3 5.9
2017-Apr-21 15:00N 44°03' E 009°50'0 0.0
2017-Apr-21 14:30N 44°03' E 009°50'7 5.8
2017-Apr-21 13:24N 44°07' E 009°43'3 6.5
2017-Apr-21 12:54N 44°09' E 009°39'0 0.3
2017-Apr-21 12:25N 44°09' E 009°39'0 0.0
2017-Apr-21 11:55N 44°09' E 009°39'0 0.0
2017-Apr-21 11:30N 44°09' E 009°39'0 0.0
2017-Apr-21 10:58N 44°09' E 009°39'0 0.1
2017-Apr-21 10:12N 44°09' E 009°39'3 6.4
2017-Apr-21 09:47N 44°07' E 009°42'2 4.2
2017-Apr-21 09:21N 44°06' E 009°44'513.5
2017-Apr-21 09:00N 44°03' E 009°49'1 1.3
2017-Apr-21 08:30N 44°03' E 009°50'0 0.0
2017-Apr-21 08:00N 44°03' E 009°50'0 0.0
2017-Apr-21 07:30N 44°03' E 009°50'0 0.0
2017-Apr-21 07:00N 44°03' E 009°50'0 0.0
2017-Apr-21 06:30N 44°03' E 009°50'0 0.0
2017-Apr-21 06:00N 44°03' E 009°50'0 0.0
2017-Apr-21 05:30N 44°03' E 009°50'0 0.8
2017-Apr-21 05:00N 44°03' E 009°51'0 0.0
2017-Apr-21 04:30N 44°03' E 009°51'0 0.0
2017-Apr-21 04:00N 44°03' E 009°51'0 0.0
2017-Apr-20 15:42N 44°03' E 009°51'211.4
2017-Apr-20 15:30N 44°05' E 009°51'1 2.4
2017-Apr-20 15:00N 44°06' E 009°50'3 6.2
2017-Apr-20 14:30N 44°03' E 009°51'2 2.3
2017-Apr-20 13:30N 44°04' E 009°48'7 7.8
2017-Apr-20 12:33N 44°08' E 009°39'0 1.8
2017-Apr-20 12:20N 44°08' E 009°39'2 1.1
2017-Apr-20 10:39N 44°09' E 009°37'211.0
2017-Apr-20 10:30N 44°08' E 009°39'4 4.7
2017-Apr-20 09:34N 44°06' E 009°44'0 4.2
2017-Apr-20 09:30N 44°06' E 009°44'510.6
2017-Apr-20 09:01N 44°03' E 009°50'3 6.8
2017-Apr-20 08:30N 44°04' E 009°55'1 1.7
2017-Apr-20 08:00N 44°04' E 009°53'3 5.2
2017-Apr-20 07:30N 44°03' E 009°50'0 0.0
2017-Apr-20 07:00N 44°03' E 009°50'0 0.0
2017-Apr-20 06:30N 44°03' E 009°50'0 0.0
2017-Apr-20 06:00N 44°03' E 009°50'0 0.0
2017-Apr-20 05:30N 44°03' E 009°50'0 0.0
2017-Apr-20 05:00N 44°03' E 009°50'0 0.0
2017-Apr-20 04:30N 44°03' E 009°50'0 0.0
2017-Apr-20 04:00N 44°03' E 009°50'0 0.0
2017-Apr-20 03:30N 44°03' E 009°50'0 0.0
2017-Apr-20 03:00N 44°03' E 009°50'0 0.0
2017-Apr-20 02:30N 44°03' E 009°50'0 0.0
2017-Apr-19 16:04N 44°03' E 009°50'0 0.0
2017-Apr-19 16:01N 44°03' E 009°50'2 4.5
2017-Apr-19 15:30N 44°04' E 009°53'2 4.5
2017-Apr-19 15:00N 44°03' E 009°50'0 0.0
2017-Apr-19 14:30N 44°03' E 009°50'1 0.5
2017-Apr-19 13:30N 44°03' E 009°50'1 1.1
2017-Apr-19 13:00N 44°03' E 009°50'0 0.0
2017-Apr-19 12:30N 44°03' E 009°50'0 0.0
2017-Apr-19 12:00N 44°03' E 009°50'0 0.0
2017-Apr-19 11:30N 44°03' E 009°50'0 0.0
2017-Apr-19 11:00N 44°03' E 009°50'2 3.8
2017-Apr-19 10:30N 44°01' E 009°51'2 3.7
2017-Apr-19 10:00N 44°03' E 009°50'3 6.9
2017-Apr-19 09:31N 44°04' E 009°55'3 6.8
2017-Apr-19 09:00N 44°03' E 009°50'0 0.0
2017-Apr-19 08:31N 44°03' E 009°50'0 0.0
2017-Apr-19 08:01N 44°03' E 009°50'3 6.8
2017-Apr-19 07:30N 44°04' E 009°55'3 6.5
2017-Apr-19 07:01N 44°03' E 009°50'3 5.4
2017-Apr-19 06:30N 44°06' E 009°50'3 5.3
2017-Apr-19 06:00N 44°03' E 009°51'0 1.0
2017-Apr-19 05:30N 44°03' E 009°50'0 0.0
2017-Apr-19 05:00N 44°03' E 009°50'0 0.0
2017-Apr-19 04:30N 44°03' E 009°50'0 0.0
2017-Apr-19 04:00N 44°03' E 009°50'0 0.0
2017-Apr-18 17:17N 44°03' E 009°50'311.2
2017-Apr-18 17:00N 44°04' E 009°46'810.3
2017-Apr-18 16:15N 44°08' E 009°37'2 5.5
2017-Apr-18 15:57N 44°09' E 009°39'4 9.8
2017-Apr-18 15:30N 44°06' E 009°44'510.6
2017-Apr-18 15:00N 44°03' E 009°50'0 0.0
2017-Apr-18 14:30N 44°03' E 009°50'4 3.9
2017-Apr-18 13:30N 44°05' E 009°45'6 9.2
2017-Apr-18 12:52N 44°09' E 009°39'0 0.1
2017-Apr-18 11:43N 44°09' E 009°39'0 0.0
2017-Apr-18 11:26N 44°09' E 009°39'3 6.2
2017-Apr-18 10:55N 44°07' E 009°43'1 2.6
2017-Apr-18 10:27N 44°06' E 009°44'511.7
2017-Apr-18 10:00N 44°03' E 009°50'2 3.2
2017-Apr-18 09:30N 44°05' E 009°51'2 3.5
2017-Apr-18 09:00N 44°06' E 009°50'0 0.0
2017-Apr-18 08:30N 44°06' E 009°50'1 1.4
2017-Apr-18 08:00N 44°06' E 009°50'3 5.3
2017-Apr-18 07:30N 44°03' E 009°50'0 0.0
2017-Apr-18 07:00N 44°03' E 009°50'0 0.0
2017-Apr-18 06:30N 44°03' E 009°50'0 0.0
2017-Apr-18 06:00N 44°03' E 009°50'0 0.0
2017-Apr-18 05:30N 44°03' E 009°50'0 0.8
2017-Apr-18 05:00N 44°03' E 009°51'0 0.0
2017-Apr-18 04:30N 44°03' E 009°51'0 0.0
2017-Apr-18 04:00N 44°03' E 009°51'0 0.0
2017-Apr-17 16:37N 44°03' E 009°51'0 3.6
2017-Apr-17 16:31N 44°03' E 009°50'714.6
2017-Apr-17 16:00N 44°07' E 009°41'0 0.8
2017-Apr-17 15:25N 44°07' E 009°42'716.7
2017-Apr-17 15:00N 44°03' E 009°50'10 7.2
2017-Apr-17 13:41N 44°09' E 009°39'0 1.0
2017-Apr-17 13:17N 44°08' E 009°40'1 4.6
2017-Apr-17 12:59N 44°07' E 009°41'2 1.0
2017-Apr-17 11:19N 44°09' E 009°39'4 4.8
2017-Apr-17 10:25N 44°06' E 009°44'512.7
2017-Apr-17 10:00N 44°03' E 009°50'3 5.9
2017-Apr-17 09:30N 44°04' E 009°46'7 7.4
2017-Apr-17 08:37N 44°08' E 009°39'213.8
2017-Apr-17 08:30N 44°08' E 009°37'1 2.6
2017-Apr-17 08:00N 44°08' E 009°39'3 5.7
2017-Apr-17 07:29N 44°07' E 009°42'510.0
2017-Apr-17 07:01N 44°04' E 009°48'2 4.0
2017-Apr-17 06:30N 44°03' E 009°50'0 0.0
2017-Apr-17 06:00N 44°03' E 009°50'0 0.0
2017-Apr-17 05:30N 44°03' E 009°50'0 0.4
2017-Apr-17 05:00N 44°03' E 009°50'0 0.5
2017-Apr-17 04:31N 44°03' E 009°51'0 0.0
2017-Apr-17 04:00N 44°03' E 009°51'0 0.0
2017-Apr-17 03:31N 44°03' E 009°51'  
2017-Apr-14 15:03N 44°03' E 009°51'0 0.0
2017-Apr-14 15:00N 44°03' E 009°51'3 5.4
2017-Apr-14 14:30N 44°04' E 009°47'7 6.3
2017-Apr-14 13:20N 44°09' E 009°39'3 5.7
2017-Apr-14 12:44N 44°07' E 009°43'1 2.7
2017-Apr-14 12:15N 44°05' E 009°44'415.6
2017-Apr-14 12:01N 44°04' E 009°48'1 2.7
2017-Apr-14 11:30N 44°03' E 009°50'0 0.0
2017-Apr-14 11:01N 44°03' E 009°50'0 0.0
2017-Apr-14 10:30N 44°03' E 009°50'0 0.0
2017-Apr-14 10:00N 44°03' E 009°50'3 6.2
2017-Apr-14 09:30N 44°04' E 009°46'7 6.3
2017-Apr-14 08:28N 44°09' E 009°39'2 2.8
2017-Apr-14 07:44N 44°09' E 009°36'211.3
2017-Apr-14 07:31N 44°08' E 009°40'611.7
2017-Apr-14 07:00N 44°04' E 009°46'3 6.6
2017-Apr-14 06:31N 44°03' E 009°50'0 0.0
2017-Apr-14 06:01N 44°03' E 009°50'0 0.0
2017-Apr-14 05:30N 44°03' E 009°50'0 0.0
2017-Apr-14 05:00N 44°03' E 009°50'0 0.0
2017-Apr-14 04:31N 44°03' E 009°50'0 0.0
2017-Apr-13 15:52N 44°03' E 009°50'3 8.0
2017-Apr-13 15:30N 44°04' E 009°46'7 9.4
2017-Apr-13 14:46N 44°09' E 009°39'0 0.2
2017-Apr-13 14:14N 44°09' E 009°39'0 0.0
2017-Apr-13 13:26N 44°09' E 009°39'0 0.0
2017-Apr-13 13:00N 44°09' E 009°39'0 0.0
2017-Apr-13 12:14N 44°09' E 009°39'0 0.0
2017-Apr-13 11:49N 44°09' E 009°39'2 5.6
2017-Apr-13 11:29N 44°08' E 009°41'714.6
2017-Apr-13 11:00N 44°03' E 009°49'2 3.7
2017-Apr-13 10:31N 44°05' E 009°51'2 3.3
2017-Apr-13 10:01N 44°06' E 009°50'0 0.0
2017-Apr-13 09:31N 44°06' E 009°50'0 0.0
2017-Apr-13 09:01N 44°06' E 009°50'0 0.1
2017-Apr-13 08:31N 44°06' E 009°50'3 6.1
2017-Apr-13 08:01N 44°03' E 009°50'0 0.0
2017-Apr-13 07:31N 44°03' E 009°50'0 0.0
2017-Apr-13 07:01N 44°03' E 009°50'0 0.0
2017-Apr-13 06:31N 44°03' E 009°50'0 0.0
2017-Apr-13 06:01N 44°03' E 009°50'0 0.9
2017-Apr-13 05:30N 44°03' E 009°51'0 0.0
2017-Apr-13 05:01N 44°03' E 009°51'0 0.0
2017-Apr-13 04:31N 44°03' E 009°51'0 0.0
2017-Apr-12 14:42N 44°03' E 009°51'0 0.0
2017-Apr-12 14:30N 44°03' E 009°51'0 0.0
2017-Apr-12 13:31N 44°03' E 009°51'0 0.0
2017-Apr-12 13:01N 44°03' E 009°51'0 0.1
2017-Apr-12 12:31N 44°03' E 009°51'3 5.1
2017-Apr-12 12:00N 44°06' E 009°50'  
Track history (hours):
 
Tides and Currents Weather Stations Pressure Air Temp Water Temp Dewpoint Dewpoint Depression Visibility Wind Speed Wind Dir Waves Ship Positions

Ufo 3

Last reported at 2017-Apr-21 15:50 UTC. Time now 2017-Apr-23 12:01 UTC.
Position N 44°05' E 009°50'.

Length 28 m.

Type: Passenger vessel. MMSI: 247031600.

Date/timePositionNaut miles runAvg speedWind from/ knotsBaromVisibWave heightAir tempDewpointWater temp
2017-Apr-21 15:50N 44°05' E 009°50'1 2.7
2017-Apr-21 15:30N 44°06' E 009°50'3 5.9
2017-Apr-21 15:00N 44°03' E 009°50'0 0.0
2017-Apr-21 14:30N 44°03' E 009°50'7 5.8
2017-Apr-21 13:24N 44°07' E 009°43'3 6.5
2017-Apr-21 12:54N 44°09' E 009°39'0 0.3
2017-Apr-21 12:25N 44°09' E 009°39'0 0.0
2017-Apr-21 11:55N 44°09' E 009°39'0 0.0
2017-Apr-21 11:30N 44°09' E 009°39'0 0.0
2017-Apr-21 10:58N 44°09' E 009°39'0 0.1
2017-Apr-21 10:12N 44°09' E 009°39'3 6.4
2017-Apr-21 09:47N 44°07' E 009°42'2 4.2
2017-Apr-21 09:21N 44°06' E 009°44'513.5
2017-Apr-21 09:00N 44°03' E 009°49'1 1.3
2017-Apr-21 08:30N 44°03' E 009°50'0 0.0
2017-Apr-21 08:00N 44°03' E 009°50'0 0.0
2017-Apr-21 07:30N 44°03' E 009°50'0 0.0
2017-Apr-21 07:00N 44°03' E 009°50'0 0.0
2017-Apr-21 06:30N 44°03' E 009°50'0 0.0
2017-Apr-21 06:00N 44°03' E 009°50'0 0.0
2017-Apr-21 05:30N 44°03' E 009°50'0 0.8
2017-Apr-21 05:00N 44°03' E 009°51'0 0.0
2017-Apr-21 04:30N 44°03' E 009°51'0 0.0
2017-Apr-21 04:00N 44°03' E 009°51'0 0.0
2017-Apr-20 15:42N 44°03' E 009°51'211.4
2017-Apr-20 15:30N 44°05' E 009°51'1 2.4
2017-Apr-20 15:00N 44°06' E 009°50'3 6.2
2017-Apr-20 14:30N 44°03' E 009°51'2 2.3
2017-Apr-20 13:30N 44°04' E 009°48'7 7.8
2017-Apr-20 12:33N 44°08' E 009°39'0 1.8
2017-Apr-20 12:20N 44°08' E 009°39'2 1.1
2017-Apr-20 10:39N 44°09' E 009°37'211.0
2017-Apr-20 10:30N 44°08' E 009°39'4 4.7
2017-Apr-20 09:34N 44°06' E 009°44'0 4.2
2017-Apr-20 09:30N 44°06' E 009°44'510.6
2017-Apr-20 09:01N 44°03' E 009°50'3 6.8
2017-Apr-20 08:30N 44°04' E 009°55'1 1.7
2017-Apr-20 08:00N 44°04' E 009°53'3 5.2
2017-Apr-20 07:30N 44°03' E 009°50'0 0.0
2017-Apr-20 07:00N 44°03' E 009°50'0 0.0
2017-Apr-20 06:30N 44°03' E 009°50'0 0.0
2017-Apr-20 06:00N 44°03' E 009°50'0 0.0
2017-Apr-20 05:30N 44°03' E 009°50'0 0.0
2017-Apr-20 05:00N 44°03' E 009°50'0 0.0
2017-Apr-20 04:30N 44°03' E 009°50'0 0.0
2017-Apr-20 04:00N 44°03' E 009°50'0 0.0
2017-Apr-20 03:30N 44°03' E 009°50'0 0.0
2017-Apr-20 03:00N 44°03' E 009°50'0 0.0
2017-Apr-20 02:30N 44°03' E 009°50'0 0.0
2017-Apr-19 16:04N 44°03' E 009°50'0 0.0
2017-Apr-19 16:01N 44°03' E 009°50'2 4.5
2017-Apr-19 15:30N 44°04' E 009°53'2 4.5
2017-Apr-19 15:00N 44°03' E 009°50'0 0.0
2017-Apr-19 14:30N 44°03' E 009°50'1 0.5
2017-Apr-19 13:30N 44°03' E 009°50'1 1.1
2017-Apr-19 13:00N 44°03' E 009°50'0 0.0
2017-Apr-19 12:30N 44°03' E 009°50'0 0.0
2017-Apr-19 12:00N 44°03' E 009°50'0 0.0
2017-Apr-19 11:30N 44°03' E 009°50'0 0.0
2017-Apr-19 11:00N 44°03' E 009°50'2 3.8
2017-Apr-19 10:30N 44°01' E 009°51'2 3.7
2017-Apr-19 10:00N 44°03' E 009°50'3 6.9
2017-Apr-19 09:31N 44°04' E 009°55'3 6.8
2017-Apr-19 09:00N 44°03' E 009°50'0 0.0
2017-Apr-19 08:31N 44°03' E 009°50'0 0.0
2017-Apr-19 08:01N 44°03' E 009°50'3 6.8
2017-Apr-19 07:30N 44°04' E 009°55'3 6.5
2017-Apr-19 07:01N 44°03' E 009°50'3 5.4
2017-Apr-19 06:30N 44°06' E 009°50'3 5.3
2017-Apr-19 06:00N 44°03' E 009°51'0 1.0
2017-Apr-19 05:30N 44°03' E 009°50'0 0.0
2017-Apr-19 05:00N 44°03' E 009°50'0 0.0
2017-Apr-19 04:30N 44°03' E 009°50'0 0.0
2017-Apr-19 04:00N 44°03' E 009°50'0 0.0
2017-Apr-18 17:17N 44°03' E 009°50'311.2
2017-Apr-18 17:00N 44°04' E 009°46'810.3
2017-Apr-18 16:15N 44°08' E 009°37'2 5.5
2017-Apr-18 15:57N 44°09' E 009°39'4 9.8
2017-Apr-18 15:30N 44°06' E 009°44'510.6
2017-Apr-18 15:00N 44°03' E 009°50'0 0.0
2017-Apr-18 14:30N 44°03' E 009°50'4 3.9
2017-Apr-18 13:30N 44°05' E 009°45'6 9.2
2017-Apr-18 12:52N 44°09' E 009°39'0 0.1
2017-Apr-18 11:43N 44°09' E 009°39'0 0.0
2017-Apr-18 11:26N 44°09' E 009°39'3 6.2
2017-Apr-18 10:55N 44°07' E 009°43'1 2.6
2017-Apr-18 10:27N 44°06' E 009°44'511.7
2017-Apr-18 10:00N 44°03' E 009°50'2 3.2
2017-Apr-18 09:30N 44°05' E 009°51'2 3.5
2017-Apr-18 09:00N 44°06' E 009°50'0 0.0
2017-Apr-18 08:30N 44°06' E 009°50'1 1.4
2017-Apr-18 08:00N 44°06' E 009°50'3 5.3
2017-Apr-18 07:30N 44°03' E 009°50'0 0.0
2017-Apr-18 07:00N 44°03' E 009°50'0 0.0
2017-Apr-18 06:30N 44°03' E 009°50'0 0.0
2017-Apr-18 06:00N 44°03' E 009°50'0 0.0
2017-Apr-18 05:30N 44°03' E 009°50'0 0.8
2017-Apr-18 05:00N 44°03' E 009°51'0 0.0
2017-Apr-18 04:30N 44°03' E 009°51'0 0.0
2017-Apr-18 04:00N 44°03' E 009°51'0 0.0
2017-Apr-17 16:37N 44°03' E 009°51'0 3.6
2017-Apr-17 16:31N 44°03' E 009°50'714.6
2017-Apr-17 16:00N 44°07' E 009°41'0 0.8
2017-Apr-17 15:25N 44°07' E 009°42'716.7
2017-Apr-17 15:00N 44°03' E 009°50'10 7.2
2017-Apr-17 13:41N 44°09' E 009°39'0 1.0
2017-Apr-17 13:17N 44°08' E 009°40'1 4.6
2017-Apr-17 12:59N 44°07' E 009°41'2 1.0
2017-Apr-17 11:19N 44°09' E 009°39'4 4.8
2017-Apr-17 10:25N 44°06' E 009°44'512.7
2017-Apr-17 10:00N 44°03' E 009°50'3 5.9
2017-Apr-17 09:30N 44°04' E 009°46'7 7.4
2017-Apr-17 08:37N 44°08' E 009°39'213.8
2017-Apr-17 08:30N 44°08' E 009°37'1 2.6
2017-Apr-17 08:00N 44°08' E 009°39'3 5.7
2017-Apr-17 07:29N 44°07' E 009°42'510.0
2017-Apr-17 07:01N 44°04' E 009°48'2 4.0
2017-Apr-17 06:30N 44°03' E 009°50'0 0.0
2017-Apr-17 06:00N 44°03' E 009°50'0 0.0
2017-Apr-17 05:30N 44°03' E 009°50'0 0.4
2017-Apr-17 05:00N 44°03' E 009°50'0 0.5
2017-Apr-17 04:31N 44°03' E 009°51'0 0.0
2017-Apr-17 04:00N 44°03' E 009°51'0 0.0
2017-Apr-17 03:31N 44°03' E 009°51'  
2017-Apr-14 15:03N 44°03' E 009°51'0 0.0
2017-Apr-14 15:00N 44°03' E 009°51'3 5.4
2017-Apr-14 14:30N 44°04' E 009°47'7 6.3
2017-Apr-14 13:20N 44°09' E 009°39'3 5.7
2017-Apr-14 12:44N 44°07' E 009°43'1 2.7
2017-Apr-14 12:15N 44°05' E 009°44'415.6
2017-Apr-14 12:01N 44°04' E 009°48'1 2.7
2017-Apr-14 11:30N 44°03' E 009°50'0 0.0
2017-Apr-14 11:01N 44°03' E 009°50'0 0.0
2017-Apr-14 10:30N 44°03' E 009°50'0 0.0
2017-Apr-14 10:00N 44°03' E 009°50'3 6.2
2017-Apr-14 09:30N 44°04' E 009°46'7 6.3
2017-Apr-14 08:28N 44°09' E 009°39'2 2.8
2017-Apr-14 07:44N 44°09' E 009°36'211.3
2017-Apr-14 07:31N 44°08' E 009°40'611.7
2017-Apr-14 07:00N 44°04' E 009°46'3 6.6
2017-Apr-14 06:31N 44°03' E 009°50'0 0.0
2017-Apr-14 06:01N 44°03' E 009°50'0 0.0
2017-Apr-14 05:30N 44°03' E 009°50'0 0.0
2017-Apr-14 05:00N 44°03' E 009°50'0 0.0
2017-Apr-14 04:31N 44°03' E 009°50'0 0.0
2017-Apr-13 15:52N 44°03' E 009°50'3 8.0
2017-Apr-13 15:30N 44°04' E 009°46'7 9.4
2017-Apr-13 14:46N 44°09' E 009°39'0 0.2
2017-Apr-13 14:14N 44°09' E 009°39'0 0.0
2017-Apr-13 13:26N 44°09' E 009°39'0 0.0
2017-Apr-13 13:00N 44°09' E 009°39'0 0.0
2017-Apr-13 12:14N 44°09' E 009°39'0 0.0
2017-Apr-13 11:49N 44°09' E 009°39'2 5.6
2017-Apr-13 11:29N 44°08' E 009°41'714.6
2017-Apr-13 11:00N 44°03' E 009°49'2 3.7
2017-Apr-13 10:31N 44°05' E 009°51'2 3.3
2017-Apr-13 10:01N 44°06' E 009°50'0 0.0
2017-Apr-13 09:31N 44°06' E 009°50'0 0.0
2017-Apr-13 09:01N 44°06' E 009°50'0 0.1
2017-Apr-13 08:31N 44°06' E 009°50'3 6.1
2017-Apr-13 08:01N 44°03' E 009°50'0 0.0
2017-Apr-13 07:31N 44°03' E 009°50'0 0.0
2017-Apr-13 07:01N 44°03' E 009°50'0 0.0
2017-Apr-13 06:31N 44°03' E 009°50'0 0.0
2017-Apr-13 06:01N 44°03' E 009°50'0 0.9
2017-Apr-13 05:30N 44°03' E 009°51'0 0.0
2017-Apr-13 05:01N 44°03' E 009°51'0 0.0
2017-Apr-13 04:31N 44°03' E 009°51'0 0.0
2017-Apr-12 14:42N 44°03' E 009°51'0 0.0
2017-Apr-12 14:30N 44°03' E 009°51'0 0.0
2017-Apr-12 13:31N 44°03' E 009°51'0 0.0
2017-Apr-12 13:01N 44°03' E 009°51'0 0.1
2017-Apr-12 12:31N 44°03' E 009°51'3 5.1
2017-Apr-12 12:00N 44°06' E 009°50'  

Dump ship's entire track history